60IN weather

Fisher Farm Airport
Roanoke, Indiana, United States

Public forecast

Using degrees Fahrenheit for public forecast. Weather courtesy of forecast.io.

METAR (pilot weather report)

Closest report is Huntington Municipal Airport, 6.8 nm (12.7 km) SW. Retrieved 2019/04/20 16:15 UTC (1 minute ago):

KHHG 201615Z AUTO 36007KT 10SM -RA OVC007 05/04 A2970 RMK AO2 T00470041

TAF (pilot weather forecast)

Closest forecast is Fort Wayne International Airport, 8.2 nm (15.1 km) ENE. Retrieved 2019/04/20 12:36 UTC (4 hours ago):

TAF KFWA 201133Z 2012/2112 02016G28KT P6SM -RA OVC018 FM201400 02018G25KT 6SM -RA BR OVC015 TEMPO 2014/2018 3SM RA BR OVC008 FM202300 01008KT P6SM SCT015 BKN060 FM210400 27004KT P6SM SCT060